Historyczne dane pomiarowe

Dodano dane terminowe – wersja testowa.

Dane z okresu 1951-2019

Wersja bazy: 1.34 [2019-03-16, lista zmian], aktualizacja planowana na 2019-04-15

Dane meteo z obszaru Polski uzyskane na podstawie danych udostępnionych przez Instytut Meteorologii i Gospodarki Wodnej – Państwowy Instytut Badawczy.

 

Wybierz Datę:    

       

TemperaturaWilgotnośćWiatrCiśnienieOpadyŚniegCzas trwania zjawisk
 Stacja t tx tn tng RH VA  wxwx mslp ppp RRR   cm mm wxwxwxwxwxwxwx
1998-01-17 4.6 6.5 3.3 1.3 82.0 7.2- 5.5--1013.4- 0.1--x- 2.6-------
1998-01-18 4.4 6.0 3.0 1.3 70.0 5.9- 6.4--1006.3- 0.0--x- 1.5-------
1998-01-19 3.0 5.2 2.0 0.8 87.0 6.7- 4.3-- 989.0- 5.3--x- 0.0-------
1998-01-20 2.4 3.9 0.2 -0.1 93.0 6.7- 2.8--1009.1- 1.6--x- 0.0-------
1998-01-21 0.4 2.8 0.2 0.2 90.0 5.7- 5.6--1029.6- 0.0--x- 0.0-------
1998-01-22 2.1 4.9 0.3 0.1 91.0 6.5- 3.9--1031.1- 0.0--x- 0.3-------
1998-01-23 -0.6 1.7 -2.0 -0.4 84.0 5.0- 2.8--1027.0- 0.0--x- 1.3-------
1998-01-24 -1.6 -0.7 -1.9 -1.9 86.0 4.8- 2.4--1020.8- 0.2--x- 0.0-------
1998-01-25 -3.1 1.1 -6.8 -8.8 83.0 4.1- 2.2--1031.2- 0.0--x- 7.5-------
1998-01-26 -6.8 -3.3 -9.3 -9.4 96.0 3.6- 0.5--1031.8- 0.0--x- 0.0-------
1998-01-27 -6.2 -5.4 -7.1 -6.6 95.0 3.7- 2.8--1021.3- 0.6--x- 0.0-------
1998-01-28 -1.1 1.4 -6.6 -6.3 95.0 5.5- 4.2--1011.8- 0.3--x- 0.0-------
1998-01-29 -3.1 1.9 -6.6-10.6 86.0 4.2- 2.0--1018.2- 0.0--x- 8.2-------
1998-01-30 0.4 2.5 -4.5 -4.3 94.0 5.9- 5.6--1007.6- 2.2--x- 0.0-------
1998-01-31 -6.9 0.7 -9.0 -6.9 60.0 2.2- 5.2--1019.0- 0.0--x- 8.4-------
1998-02-01 -7.9 -3.3-12.0-14.1 68.0 2.3- 2.2--1021.1- 0.0--x- 8.4-------
1998-02-02 -5.6 -3.4-10.2-12.6 65.0 2.5- 4.8--1004.1- 0.5--x- 6.4-------
1998-02-03 -0.9 0.7 -5.2 -5.2 84.0 4.8- 7.6--1001.0- 0.3--x- 0.1-------
1998-02-04 -1.0 2.8 -4.3 -9.1 73.0 4.2- 5.3--1010.8- 0.0--x- 4.8-------
1998-02-05 2.0 4.1 -2.1 -4.4 83.0 5.8- 4.6--1013.9- 1.2--x- 1.7-------
1998-02-06 3.4 5.0 2.6 1.6 89.0 7.1- 3.8--1019.2- 0.0--x- 0.0-------
1998-02-07 3.0 6.8 1.1 -0.5 75.0 5.8- 4.0--1014.4- 1.4--x- 5.4-------
1998-02-08 2.7 5.0 1.3 -0.6 86.0 6.6- 6.4--1022.1- 0.0--x- 0.1-------
1998-02-09 4.5 9.1 1.4 -0.1 78.0 6.7- 5.3--1022.1- 0.0--x- 2.2-------
1998-02-10 5.8 9.3 0.3 -3.1 73.0 6.7- 5.3--1023.0- 0.0--x- 2.1-------
1998-02-11 6.9 9.3 4.6 4.4 79.0 7.8- 4.9--1021.2- 0.6--x- 2.4-------
1998-02-12 11.4 13.0 6.8 5.6 81.0 10.8- 8.4--1016.8- 1.1--x- 0.1-------
1998-02-13 8.3 12.6 6.3 9.7 95.0 10.9- 4.9--1023.2- 7.5--x- 0.0-------
1998-02-14 11.8 13.4 6.5 6.3 87.0 11.9- 5.4--1024.3- 2.2--x- 0.1-------
1998-02-15 10.9 12.3 8.8 7.7 86.0 11.2- 5.6--1020.3- 1.9--x- 0.0-------
2104.2 ms

 

Źródłem pochodzenia danych jest Instytut Meteorologii i Gospodarki Wodnej – Państwowy Instytut Badawczy. Dane Instytutu Meteorologii i Gospodarki Wodnej – Państwowego Instytutu Badawczego zostały przetworzone.

Dane źródłowe można odnaleźć na stronie https://dane.imgw.pl